sensor_id;sensor_type;location;lat;lon;timestamp;temperature;humidity
5218;DHT22;26539;51.064;6.346;2022-12-18T00:00:51;-4.40;1.00
5218;DHT22;26539;51.064;6.346;2022-12-18T00:03:17;-4.50;1.00
5218;DHT22;26539;51.064;6.346;2022-12-18T00:05:47;-4.50;1.00
5218;DHT22;26539;51.064;6.346;2022-12-18T00:08:13;-4.50;1.00
5218;DHT22;26539;51.064;6.346;2022-12-18T00:10:43;-4.50;1.00
5218;DHT22;26539;51.064;6.346;2022-12-18T00:13:10;-4.50;1.00
5218;DHT22;26539;51.064;6.346;2022-12-18T00:15:37;-4.50;1.00
5218;DHT22;26539;51.064;6.346;2022-12-18T00:18:03;-4.50;1.00
5218;DHT22;26539;51.064;6.346;2022-12-18T00:20:28;-4.50;1.00
5218;DHT22;26539;51.064;6.346;2022-12-18T00:22:56;-4.40;1.00
5218;DHT22;26539;51.064;6.346;2022-12-18T00:25:22;-4.50;99.90
5218;DHT22;26539;51.064;6.346;2022-12-18T00:27:48;-4.50;99.90
5218;DHT22;26539;51.064;6.346;2022-12-18T00:30:13;-4.60;99.90
5218;DHT22;26539;51.064;6.346;2022-12-18T00:32:39;-4.60;99.90
5218;DHT22;26539;51.064;6.346;2022-12-18T00:35:06;-4.60;1.00
5218;DHT22;26539;51.064;6.346;2022-12-18T00:37:33;-4.60;1.00
5218;DHT22;26539;51.064;6.346;2022-12-18T00:39:59;-4.70;1.00
5218;DHT22;26539;51.064;6.346;2022-12-18T00:42:29;-4.70;1.00
5218;DHT22;26539;51.064;6.346;2022-12-18T00:45:13;-4.70;40.90
5218;DHT22;26539;51.064;6.346;2022-12-18T00:47:39;-4.70;94.40
5218;DHT22;26539;51.064;6.346;2022-12-18T00:50:06;-4.70;99.90
5218;DHT22;26539;51.064;6.346;2022-12-18T00:52:32;-4.70;99.90
5218;DHT22;26539;51.064;6.346;2022-12-18T00:54:57;-4.70;85.00
5218;DHT22;26539;51.064;6.346;2022-12-18T00:57:23;-4.70;1.00
5218;DHT22;26539;51.064;6.346;2022-12-18T00:59:48;-4.70;1.00
5218;DHT22;26539;51.064;6.346;2022-12-18T01:02:14;-4.80;1.00
5218;DHT22;26539;51.064;6.346;2022-12-18T01:04:40;-4.80;1.00
5218;DHT22;26539;51.064;6.346;2022-12-18T01:07:05;-4.80;1.00
5218;DHT22;26539;51.064;6.346;2022-12-18T01:09:31;-4.80;1.00
5218;DHT22;26539;51.064;6.346;2022-12-18T01:11:59;-4.80;15.40
5218;DHT22;26539;51.064;6.346;2022-12-18T01:14:25;-4.80;1.00
5218;DHT22;26539;51.064;6.346;2022-12-18T01:16:50;-4.80;1.00
5218;DHT22;26539;51.064;6.346;2022-12-18T01:19:16;-4.80;70.90
5218;DHT22;26539;51.064;6.346;2022-12-18T01:21:44;-4.80;89.90
5218;DHT22;26539;51.064;6.346;2022-12-18T01:24:11;-4.80;37.00
5218;DHT22;26539;51.064;6.346;2022-12-18T01:26:37;-4.80;15.80
5218;DHT22;26539;51.064;6.346;2022-12-18T01:29:05;-4.80;2.30
5218;DHT22;26539;51.064;6.346;2022-12-18T01:31:33;-4.70;1.00
5218;DHT22;26539;51.064;6.346;2022-12-18T01:34:00;-4.70;1.00
5218;DHT22;26539;51.064;6.346;2022-12-18T01:36:29;-4.70;1.00
5218;DHT22;26539;51.064;6.346;2022-12-18T01:38:55;-4.70;1.00
5218;DHT22;26539;51.064;6.346;2022-12-18T01:41:24;-4.70;1.00
5218;DHT22;26539;51.064;6.346;2022-12-18T01:43:57;-4.70;8.00
5218;DHT22;26539;51.064;6.346;2022-12-18T01:46:24;-4.70;1.00
5218;DHT22;26539;51.064;6.346;2022-12-18T01:48:52;-4.70;1.00
5218;DHT22;26539;51.064;6.346;2022-12-18T01:51:19;-4.70;1.00
5218;DHT22;26539;51.064;6.346;2022-12-18T01:53:46;-4.80;1.00
5218;DHT22;26539;51.064;6.346;2022-12-18T01:56:20;-4.80;1.00
5218;DHT22;26539;51.064;6.346;2022-12-18T01:59:00;-4.70;1.00
5218;DHT22;26539;51.064;6.346;2022-12-18T02:01:29;-4.70;1.00
5218;DHT22;26539;51.064;6.346;2022-12-18T02:03:55;-4.70;99.90
5218;DHT22;26539;51.064;6.346;2022-12-18T02:06:29;-4.80;99.90
5218;DHT22;26539;51.064;6.346;2022-12-18T02:09:02;-4.80;99.90
5218;DHT22;26539;51.064;6.346;2022-12-18T02:11:45;-4.80;99.90
5218;DHT22;26539;51.064;6.346;2022-12-18T02:14:36;-4.80;99.90
5218;DHT22;26539;51.064;6.346;2022-12-18T02:17:07;-4.80;99.90
5218;DHT22;26539;51.064;6.346;2022-12-18T02:28:25;-4.80;99.90
5218;DHT22;26539;51.064;6.346;2022-12-18T02:30:56;-4.90;99.90
5218;DHT22;26539;51.064;6.346;2022-12-18T02:33:25;-4.90;99.90
5218;DHT22;26539;51.064;6.346;2022-12-18T02:35:56;-4.90;99.90
5218;DHT22;26539;51.064;6.346;2022-12-18T02:38:23;-4.90;99.90
5218;DHT22;26539;51.064;6.346;2022-12-18T02:40:53;-4.90;99.90
5218;DHT22;26539;51.064;6.346;2022-12-18T02:43:19;-5.00;99.90
5218;DHT22;26539;51.064;6.346;2022-12-18T02:45:57;-5.00;1.00
5218;DHT22;26539;51.064;6.346;2022-12-18T02:48:28;-5.00;1.00
5218;DHT22;26539;51.064;6.346;2022-12-18T02:51:19;-5.00;20.10
5218;DHT22;26539;51.064;6.346;2022-12-18T02:53:53;-5.00;99.90
5218;DHT22;26539;51.064;6.346;2022-12-18T02:56:46;-5.00;99.90
5218;DHT22;26539;51.064;6.346;2022-12-18T02:59:14;-5.00;99.90
5218;DHT22;26539;51.064;6.346;2022-12-18T03:05:09;-5.00;99.90
5218;DHT22;26539;51.064;6.346;2022-12-18T03:07:36;-5.00;99.90
5218;DHT22;26539;51.064;6.346;2022-12-18T03:10:04;-5.00;1.00
5218;DHT22;26539;51.064;6.346;2022-12-18T03:12:34;-5.00;1.00
5218;DHT22;26539;51.064;6.346;2022-12-18T03:15:28;-5.00;1.00
5218;DHT22;26539;51.064;6.346;2022-12-18T03:18:01;-5.00;1.00
5218;DHT22;26539;51.064;6.346;2022-12-18T03:20:35;-5.00;1.00
5218;DHT22;26539;51.064;6.346;2022-12-18T03:23:10;-5.00;1.00
5218;DHT22;26539;51.064;6.346;2022-12-18T03:25:42;-5.00;1.00
5218;DHT22;26539;51.064;6.346;2022-12-18T03:28:16;-5.00;99.90
5218;DHT22;26539;51.064;6.346;2022-12-18T03:30:46;-5.00;99.90
5218;DHT22;26539;51.064;6.346;2022-12-18T03:33:18;-5.00;99.90
5218;DHT22;26539;51.064;6.346;2022-12-18T03:35:45;-4.90;99.90
5218;DHT22;26539;51.064;6.346;2022-12-18T03:38:11;-4.90;99.90
5218;DHT22;26539;51.064;6.346;2022-12-18T03:43:16;-4.90;99.90
5218;DHT22;26539;51.064;6.346;2022-12-18T03:45:51;-4.90;99.90
5218;DHT22;26539;51.064;6.346;2022-12-18T03:51:15;-4.90;99.90
5218;DHT22;26539;51.064;6.346;2022-12-18T03:53:58;-4.90;99.90
5218;DHT22;26539;51.064;6.346;2022-12-18T03:56:28;-4.90;99.90
5218;DHT22;26539;51.064;6.346;2022-12-18T03:58:55;-4.90;99.90
5218;DHT22;26539;51.064;6.346;2022-12-18T04:01:27;-4.90;99.90
5218;DHT22;26539;51.064;6.346;2022-12-18T04:03:56;-4.90;99.90
5218;DHT22;26539;51.064;6.346;2022-12-18T04:06:22;-4.90;99.90
5218;DHT22;26539;51.064;6.346;2022-12-18T04:08:48;-4.90;99.90
5218;DHT22;26539;51.064;6.346;2022-12-18T04:11:15;-4.90;99.90
5218;DHT22;26539;51.064;6.346;2022-12-18T04:13:42;-4.90;99.90
5218;DHT22;26539;51.064;6.346;2022-12-18T04:16:08;-4.80;99.90
5218;DHT22;26539;51.064;6.346;2022-12-18T04:18:35;-4.80;99.90
5218;DHT22;26539;51.064;6.346;2022-12-18T04:21:01;-4.80;99.90
5218;DHT22;26539;51.064;6.346;2022-12-18T04:23:26;-4.80;99.90
5218;DHT22;26539;51.064;6.346;2022-12-18T04:25:53;-4.80;99.90
5218;DHT22;26539;51.064;6.346;2022-12-18T04:28:19;-4.80;99.90
5218;DHT22;26539;51.064;6.346;2022-12-18T04:30:45;-4.80;99.90
5218;DHT22;26539;51.064;6.346;2022-12-18T04:33:16;-4.80;99.90
5218;DHT22;26539;51.064;6.346;2022-12-18T04:35:41;-4.80;99.90
5218;DHT22;26539;51.064;6.346;2022-12-18T04:38:10;-4.80;99.90
5218;DHT22;26539;51.064;6.346;2022-12-18T04:40:37;-4.80;99.90
5218;DHT22;26539;51.064;6.346;2022-12-18T04:43:03;-4.80;99.90
5218;DHT22;26539;51.064;6.346;2022-12-18T04:45:33;-4.80;99.90
5218;DHT22;26539;51.064;6.346;2022-12-18T04:47:59;-4.80;99.90
5218;DHT22;26539;51.064;6.346;2022-12-18T04:50:28;-4.80;99.90
5218;DHT22;26539;51.064;6.346;2022-12-18T04:52:54;-4.80;99.90
5218;DHT22;26539;51.064;6.346;2022-12-18T04:55:20;-4.80;99.90
5218;DHT22;26539;51.064;6.346;2022-12-18T04:57:46;-4.80;99.90
5218;DHT22;26539;51.064;6.346;2022-12-18T05:00:12;-4.70;99.90
5218;DHT22;26539;51.064;6.346;2022-12-18T05:02:38;-4.70;99.90
5218;DHT22;26539;51.064;6.346;2022-12-18T05:05:03;-4.70;99.90
5218;DHT22;26539;51.064;6.346;2022-12-18T05:07:29;-4.70;92.90
5218;DHT22;26539;51.064;6.346;2022-12-18T05:09:55;-4.70;34.60
5218;DHT22;26539;51.064;6.346;2022-12-18T05:12:23;-4.70;40.10
5218;DHT22;26539;51.064;6.346;2022-12-18T05:14:49;-4.70;16.40
5218;DHT22;26539;51.064;6.346;2022-12-18T05:17:14;-4.70;1.00
5218;DHT22;26539;51.064;6.346;2022-12-18T05:19:43;-4.70;1.00
5218;DHT22;26539;51.064;6.346;2022-12-18T05:22:09;-4.70;1.00
5218;DHT22;26539;51.064;6.346;2022-12-18T05:24:35;-4.70;1.00
5218;DHT22;26539;51.064;6.346;2022-12-18T05:27:00;-4.80;1.00
5218;DHT22;26539;51.064;6.346;2022-12-18T05:29:26;-4.80;1.00
5218;DHT22;26539;51.064;6.346;2022-12-18T05:31:51;-4.80;1.00
5218;DHT22;26539;51.064;6.346;2022-12-18T05:34:17;-4.80;1.00
5218;DHT22;26539;51.064;6.346;2022-12-18T05:36:47;-4.80;1.00
5218;DHT22;26539;51.064;6.346;2022-12-18T05:39:13;-4.80;1.00
5218;DHT22;26539;51.064;6.346;2022-12-18T05:41:42;-4.80;1.00
5218;DHT22;26539;51.064;6.346;2022-12-18T05:44:13;-4.80;1.00
5218;DHT22;26539;51.064;6.346;2022-12-18T05:46:38;-4.80;1.00
5218;DHT22;26539;51.064;6.346;2022-12-18T05:49:04;-4.80;1.00
5218;DHT22;26539;51.064;6.346;2022-12-18T05:51:30;-4.80;1.00
5218;DHT22;26539;51.064;6.346;2022-12-18T05:53:56;-4.80;1.00
5218;DHT22;26539;51.064;6.346;2022-12-18T05:56:22;-4.80;1.00
5218;DHT22;26539;51.064;6.346;2022-12-18T05:58:51;-4.80;1.00
5218;DHT22;26539;51.064;6.346;2022-12-18T06:01:24;-4.80;1.00
5218;DHT22;26539;51.064;6.346;2022-12-18T06:03:50;-4.80;1.00
5218;DHT22;26539;51.064;6.346;2022-12-18T06:06:18;-4.80;1.00
5218;DHT22;26539;51.064;6.346;2022-12-18T06:08:47;-4.80;1.00
5218;DHT22;26539;51.064;6.346;2022-12-18T06:11:15;-4.80;1.00
5218;DHT22;26539;51.064;6.346;2022-12-18T06:13:44;-4.80;1.00
5218;DHT22;26539;51.064;6.346;2022-12-18T06:16:09;-4.80;1.00
5218;DHT22;26539;51.064;6.346;2022-12-18T06:18:35;-4.80;1.00
5218;DHT22;26539;51.064;6.346;2022-12-18T06:21:01;-4.80;1.00
5218;DHT22;26539;51.064;6.346;2022-12-18T06:23:30;-4.80;94.80
5218;DHT22;26539;51.064;6.346;2022-12-18T06:25:55;-4.80;92.30
5218;DHT22;26539;51.064;6.346;2022-12-18T06:28:21;-4.80;99.90
5218;DHT22;26539;51.064;6.346;2022-12-18T06:30:47;-4.80;99.90
5218;DHT22;26539;51.064;6.346;2022-12-18T06:33:15;-4.80;99.90
5218;DHT22;26539;51.064;6.346;2022-12-18T06:35:41;-4.80;99.90
5218;DHT22;26539;51.064;6.346;2022-12-18T06:38:07;-4.80;99.90
5218;DHT22;26539;51.064;6.346;2022-12-18T06:40:33;-4.80;99.90
5218;DHT22;26539;51.064;6.346;2022-12-18T06:42:58;-4.80;99.90
5218;DHT22;26539;51.064;6.346;2022-12-18T06:45:24;-4.80;99.90
5218;DHT22;26539;51.064;6.346;2022-12-18T06:47:50;-4.70;99.90
5218;DHT22;26539;51.064;6.346;2022-12-18T06:50:16;-4.70;99.90
5218;DHT22;26539;51.064;6.346;2022-12-18T06:52:43;-4.70;99.90
5218;DHT22;26539;51.064;6.346;2022-12-18T06:55:10;-4.70;99.90
5218;DHT22;26539;51.064;6.346;2022-12-18T06:57:36;-4.70;99.90
5218;DHT22;26539;51.064;6.346;2022-12-18T07:00:06;-4.60;99.90
5218;DHT22;26539;51.064;6.346;2022-12-18T07:02:32;-4.60;99.90
5218;DHT22;26539;51.064;6.346;2022-12-18T07:04:58;-4.60;99.90
5218;DHT22;26539;51.064;6.346;2022-12-18T07:07:23;-4.60;99.90
5218;DHT22;26539;51.064;6.346;2022-12-18T07:09:50;-4.60;95.10
5218;DHT22;26539;51.064;6.346;2022-12-18T07:12:18;-4.50;53.20
5218;DHT22;26539;51.064;6.346;2022-12-18T07:14:44;-4.50;1.00
5218;DHT22;26539;51.064;6.346;2022-12-18T07:17:10;-4.50;1.00
5218;DHT22;26539;51.064;6.346;2022-12-18T07:19:36;-4.50;1.00
5218;DHT22;26539;51.064;6.346;2022-12-18T07:22:01;-4.50;1.00
5218;DHT22;26539;51.064;6.346;2022-12-18T07:24:27;-4.40;1.00
5218;DHT22;26539;51.064;6.346;2022-12-18T07:27:00;-4.40;1.00
5218;DHT22;26539;51.064;6.346;2022-12-18T07:29:39;-4.40;1.00
5218;DHT22;26539;51.064;6.346;2022-12-18T07:32:05;-4.20;1.00
5218;DHT22;26539;51.064;6.346;2022-12-18T07:34:38;-4.10;99.90
5218;DHT22;26539;51.064;6.346;2022-12-18T07:37:04;-4.10;1.00
5218;DHT22;26539;51.064;6.346;2022-12-18T07:39:30;-4.00;99.90
5218;DHT22;26539;51.064;6.346;2022-12-18T07:41:56;-4.00;1.00
5218;DHT22;26539;51.064;6.346;2022-12-18T07:44:40;-3.90;1.00
5218;DHT22;26539;51.064;6.346;2022-12-18T07:47:08;-3.90;99.90
5218;DHT22;26539;51.064;6.346;2022-12-18T07:49:34;-3.90;16.80
5218;DHT22;26539;51.064;6.346;2022-12-18T07:52:02;-3.80;1.00
5218;DHT22;26539;51.064;6.346;2022-12-18T07:54:28;-3.80;99.90
5218;DHT22;26539;51.064;6.346;2022-12-18T07:56:57;-3.70;99.90
5218;DHT22;26539;51.064;6.346;2022-12-18T07:59:25;-3.60;99.90
5218;DHT22;26539;51.064;6.346;2022-12-18T08:01:51;-3.60;1.00
5218;DHT22;26539;51.064;6.346;2022-12-18T08:04:17;-3.50;1.00
5218;DHT22;26539;51.064;6.346;2022-12-18T08:06:43;-3.40;99.90
5218;DHT22;26539;51.064;6.346;2022-12-18T08:09:12;-3.40;99.90
5218;DHT22;26539;51.064;6.346;2022-12-18T08:11:41;-3.30;99.90
5218;DHT22;26539;51.064;6.346;2022-12-18T08:14:06;-3.20;56.30
5218;DHT22;26539;51.064;6.346;2022-12-18T08:16:32;-3.00;1.00
5218;DHT22;26539;51.064;6.346;2022-12-18T08:18:57;-2.90;99.90
5218;DHT22;26539;51.064;6.346;2022-12-18T08:21:26;-2.70;99.90
5218;DHT22;26539;51.064;6.346;2022-12-18T08:24:00;-2.60;99.90
5218;DHT22;26539;51.064;6.346;2022-12-18T08:26:28;-2.20;1.00
5218;DHT22;26539;51.064;6.346;2022-12-18T08:29:01;-1.60;1.00
5218;DHT22;26539;51.064;6.346;2022-12-18T08:31:28;-1.20;99.90
5218;DHT22;26539;51.064;6.346;2022-12-18T08:33:57;-1.00;1.00
5218;DHT22;26539;51.064;6.346;2022-12-18T08:36:23;-1.00;1.00
5218;DHT22;26539;51.064;6.346;2022-12-18T08:38:49;-1.00;1.00
5218;DHT22;26539;51.064;6.346;2022-12-18T08:41:16;-1.00;1.00
5218;DHT22;26539;51.064;6.346;2022-12-18T08:43:42;-0.90;1.00
5218;DHT22;26539;51.064;6.346;2022-12-18T08:46:40;-0.80;1.00
5218;DHT22;26539;51.064;6.346;2022-12-18T08:49:07;-0.70;1.00
5218;DHT22;26539;51.064;6.346;2022-12-18T08:51:34;-0.60;1.00
5218;DHT22;26539;51.064;6.346;2022-12-18T08:53:59;-0.50;1.00
5218;DHT22;26539;51.064;6.346;2022-12-18T08:56:25;-0.30;1.00
5218;DHT22;26539;51.064;6.346;2022-12-18T08:58:52;-0.20;1.00
5218;DHT22;26539;51.064;6.346;2022-12-18T09:01:18;-0.20;1.00
5218;DHT22;26539;51.064;6.346;2022-12-18T09:03:48;0.00;1.00
5218;DHT22;26539;51.064;6.346;2022-12-18T09:06:16;0.00;1.00
5218;DHT22;26539;51.064;6.346;2022-12-18T09:08:43;0.00;1.00
5218;DHT22;26539;51.064;6.346;2022-12-18T09:11:14;0.00;1.00
5218;DHT22;26539;51.064;6.346;2022-12-18T09:13:40;0.00;1.00
5218;DHT22;26539;51.064;6.346;2022-12-18T09:16:06;0.10;99.90
5218;DHT22;26539;51.064;6.346;2022-12-18T09:18:37;0.20;1.00
5218;DHT22;26539;51.064;6.346;2022-12-18T09:21:15;0.30;99.90
5218;DHT22;26539;51.064;6.346;2022-12-18T09:23:41;0.40;99.90
5218;DHT22;26539;51.064;6.346;2022-12-18T09:26:06;0.40;99.90
5218;DHT22;26539;51.064;6.346;2022-12-18T09:28:32;0.50;99.90
5218;DHT22;26539;51.064;6.346;2022-12-18T09:30:58;0.60;99.90
5218;DHT22;26539;51.064;6.346;2022-12-18T09:33:24;0.70;99.90
5218;DHT22;26539;51.064;6.346;2022-12-18T09:36:00;0.80;99.90
5218;DHT22;26539;51.064;6.346;2022-12-18T09:38:28;0.90;99.90
5218;DHT22;26539;51.064;6.346;2022-12-18T09:41:00;1.00;99.90
5218;DHT22;26539;51.064;6.346;2022-12-18T09:43:40;1.00;99.90
5218;DHT22;26539;51.064;6.346;2022-12-18T09:46:09;1.10;99.90
5218;DHT22;26539;51.064;6.346;2022-12-18T09:48:42;1.10;99.90
5218;DHT22;26539;51.064;6.346;2022-12-18T09:51:28;1.20;99.90
5218;DHT22;26539;51.064;6.346;2022-12-18T09:54:12;1.30;99.90
5218;DHT22;26539;51.064;6.346;2022-12-18T09:56:43;1.30;99.90
5218;DHT22;26539;51.064;6.346;2022-12-18T09:59:35;1.30;99.90
5218;DHT22;26539;51.064;6.346;2022-12-18T10:02:17;1.30;99.90
5218;DHT22;26539;51.064;6.346;2022-12-18T10:04:46;1.40;99.90
5218;DHT22;26539;51.064;6.346;2022-12-18T10:07:27;1.50;99.90
5218;DHT22;26539;51.064;6.346;2022-12-18T10:10:07;1.50;99.90
5218;DHT22;26539;51.064;6.346;2022-12-18T10:12:50;1.50;99.90
5218;DHT22;26539;51.064;6.346;2022-12-18T10:15:36;1.60;99.90
5218;DHT22;26539;51.064;6.346;2022-12-18T10:27:21;2.00;99.90
5218;DHT22;26539;51.064;6.346;2022-12-18T10:29:48;2.10;99.90
5218;DHT22;26539;51.064;6.346;2022-12-18T10:32:19;2.20;99.90
5218;DHT22;26539;51.064;6.346;2022-12-18T10:34:50;2.10;99.90
5218;DHT22;26539;51.064;6.346;2022-12-18T10:37:18;2.10;99.90
5218;DHT22;26539;51.064;6.346;2022-12-18T10:39:45;2.10;99.90
5218;DHT22;26539;51.064;6.346;2022-12-18T10:42:17;2.00;99.90
5218;DHT22;26539;51.064;6.346;2022-12-18T10:44:42;2.00;99.90
5218;DHT22;26539;51.064;6.346;2022-12-18T10:47:14;2.00;99.90
5218;DHT22;26539;51.064;6.346;2022-12-18T10:49:49;2.00;99.90
5218;DHT22;26539;51.064;6.346;2022-12-18T10:52:18;1.90;99.90
5218;DHT22;26539;51.064;6.346;2022-12-18T10:54:59;1.90;99.90
5218;DHT22;26539;51.064;6.346;2022-12-18T10:57:40;1.90;99.90
5218;DHT22;26539;51.064;6.346;2022-12-18T11:00:28;1.90;99.90
5218;DHT22;26539;51.064;6.346;2022-12-18T11:02:56;2.00;99.90
5218;DHT22;26539;51.064;6.346;2022-12-18T11:05:28;2.00;99.90
5218;DHT22;26539;51.064;6.346;2022-12-18T11:07:55;2.00;99.90
5218;DHT22;26539;51.064;6.346;2022-12-18T11:10:32;2.00;99.90
5218;DHT22;26539;51.064;6.346;2022-12-18T11:13:20;2.00;99.90
5218;DHT22;26539;51.064;6.346;2022-12-18T11:15:45;2.10;99.90
5218;DHT22;26539;51.064;6.346;2022-12-18T11:18:17;2.10;99.90
5218;DHT22;26539;51.064;6.346;2022-12-18T11:20:53;2.10;99.90
5218;DHT22;26539;51.064;6.346;2022-12-18T11:23:20;2.10;99.90
5218;DHT22;26539;51.064;6.346;2022-12-18T11:25:58;2.20;99.90
5218;DHT22;26539;51.064;6.346;2022-12-18T11:36:46;2.00;99.90
5218;DHT22;26539;51.064;6.346;2022-12-18T11:41:56;1.90;99.90
5218;DHT22;26539;51.064;6.346;2022-12-18T11:50:28;1.70;99.90
5218;DHT22;26539;51.064;6.346;2022-12-18T11:52:55;1.70;99.90
5218;DHT22;26539;51.064;6.346;2022-12-18T11:55:41;1.70;99.90
5218;DHT22;26539;51.064;6.346;2022-12-18T12:01:05;1.80;99.90
5218;DHT22;26539;51.064;6.346;2022-12-18T12:04:01;1.70;99.90
5218;DHT22;26539;51.064;6.346;2022-12-18T12:06:39;1.70;99.90
5218;DHT22;26539;51.064;6.346;2022-12-18T12:09:18;1.60;99.90
5218;DHT22;26539;51.064;6.346;2022-12-18T12:12:51;1.60;99.90
5218;DHT22;26539;51.064;6.346;2022-12-18T12:15:38;1.60;99.90
5218;DHT22;26539;51.064;6.346;2022-12-18T12:20:50;1.50;99.90
5218;DHT22;26539;51.064;6.346;2022-12-18T12:26:14;1.40;99.90
5218;DHT22;26539;51.064;6.346;2022-12-18T12:28:53;1.40;99.90
5218;DHT22;26539;51.064;6.346;2022-12-18T12:31:54;1.40;99.90
5218;DHT22;26539;51.064;6.346;2022-12-18T12:34:26;1.40;99.90
5218;DHT22;26539;51.064;6.346;2022-12-18T12:39:44;1.40;99.90
5218;DHT22;26539;51.064;6.346;2022-12-18T12:42:29;1.50;99.90
5218;DHT22;26539;51.064;6.346;2022-12-18T12:45:20;1.60;99.90
5218;DHT22;26539;51.064;6.346;2022-12-18T12:47:49;1.70;99.90
5218;DHT22;26539;51.064;6.346;2022-12-18T12:50:18;1.70;99.90
5218;DHT22;26539;51.064;6.346;2022-12-18T12:52:52;1.70;99.90
5218;DHT22;26539;51.064;6.346;2022-12-18T12:55:28;1.60;99.90
5218;DHT22;26539;51.064;6.346;2022-12-18T12:58:01;1.70;99.90
5218;DHT22;26539;51.064;6.346;2022-12-18T13:00:31;1.60;99.90
5218;DHT22;26539;51.064;6.346;2022-12-18T13:03:27;1.60;99.90
5218;DHT22;26539;51.064;6.346;2022-12-18T13:06:04;1.60;99.90
5218;DHT22;26539;51.064;6.346;2022-12-18T13:08:53;1.60;99.90
5218;DHT22;26539;51.064;6.346;2022-12-18T13:11:41;1.60;99.90
5218;DHT22;26539;51.064;6.346;2022-12-18T13:14:32;1.50;99.90
5218;DHT22;26539;51.064;6.346;2022-12-18T13:17:34;1.40;99.90
5218;DHT22;26539;51.064;6.346;2022-12-18T13:20:11;1.40;99.90
5218;DHT22;26539;51.064;6.346;2022-12-18T13:22:48;1.40;99.90
5218;DHT22;26539;51.064;6.346;2022-12-18T13:25:40;1.50;99.90
5218;DHT22;26539;51.064;6.346;2022-12-18T13:28:10;1.50;99.90
5218;DHT22;26539;51.064;6.346;2022-12-18T13:36:35;1.30;99.90
5218;DHT22;26539;51.064;6.346;2022-12-18T13:41:46;1.30;99.90
5218;DHT22;26539;51.064;6.346;2022-12-18T13:44:34;1.20;99.90
5218;DHT22;26539;51.064;6.346;2022-12-18T13:47:03;1.10;99.90
5218;DHT22;26539;51.064;6.346;2022-12-18T13:49:33;1.10;99.90
5218;DHT22;26539;51.064;6.346;2022-12-18T13:52:04;1.00;99.90
5218;DHT22;26539;51.064;6.346;2022-12-18T13:54:41;1.00;99.90
5218;DHT22;26539;51.064;6.346;2022-12-18T13:57:36;1.00;99.90
5218;DHT22;26539;51.064;6.346;2022-12-18T14:00:26;0.90;99.90
5218;DHT22;26539;51.064;6.346;2022-12-18T14:02:53;0.80;99.90
5218;DHT22;26539;51.064;6.346;2022-12-18T14:07:52;0.80;99.90
5218;DHT22;26539;51.064;6.346;2022-12-18T14:10:18;0.70;99.90
5218;DHT22;26539;51.064;6.346;2022-12-18T14:12:50;0.70;99.90
5218;DHT22;26539;51.064;6.346;2022-12-18T14:15:28;0.60;99.90
5218;DHT22;26539;51.064;6.346;2022-12-18T14:18:48;0.50;99.90
5218;DHT22;26539;51.064;6.346;2022-12-18T14:20:47;0.40;99.90
5218;DHT22;26539;51.064;6.346;2022-12-18T14:23:38;0.40;99.90
5218;DHT22;26539;51.064;6.346;2022-12-18T14:28:48;0.30;99.90
5218;DHT22;26539;51.064;6.346;2022-12-18T14:31:20;0.30;99.90
5218;DHT22;26539;51.064;6.346;2022-12-18T14:33:47;0.20;99.90
5218;DHT22;26539;51.064;6.346;2022-12-18T14:36:17;0.20;99.90
5218;DHT22;26539;51.064;6.346;2022-12-18T14:38:55;0.20;1.00
5218;DHT22;26539;51.064;6.346;2022-12-18T14:41:22;0.20;1.00
5218;DHT22;26539;51.064;6.346;2022-12-18T14:43:52;0.20;1.00
5218;DHT22;26539;51.064;6.346;2022-12-18T14:46:39;0.10;1.00
5218;DHT22;26539;51.064;6.346;2022-12-18T14:49:24;0.10;1.00
5218;DHT22;26539;51.064;6.346;2022-12-18T14:51:54;0.10;1.00
5218;DHT22;26539;51.064;6.346;2022-12-18T14:54:21;0.10;1.00
5218;DHT22;26539;51.064;6.346;2022-12-18T14:59:36;0.00;1.00
5218;DHT22;26539;51.064;6.346;2022-12-18T15:04:46;0.00;1.00
5218;DHT22;26539;51.064;6.346;2022-12-18T15:07:20;0.00;1.00
5218;DHT22;26539;51.064;6.346;2022-12-18T15:13:08;0.00;1.00
5218;DHT22;26539;51.064;6.346;2022-12-18T15:23:21;-0.20;1.00
5218;DHT22;26539;51.064;6.346;2022-12-18T15:25:55;-0.20;1.00
5218;DHT22;26539;51.064;6.346;2022-12-18T15:28:28;-0.30;1.00
5218;DHT22;26539;51.064;6.346;2022-12-18T15:33:44;-0.40;1.00
5218;DHT22;26539;51.064;6.346;2022-12-18T15:36:16;-0.40;1.00
5218;DHT22;26539;51.064;6.346;2022-12-18T15:38:45;-0.40;1.00
5218;DHT22;26539;51.064;6.346;2022-12-18T15:41:14;-0.50;1.00
5218;DHT22;26539;51.064;6.346;2022-12-18T15:43:40;-0.50;1.00
5218;DHT22;26539;51.064;6.346;2022-12-18T15:46:12;-0.50;1.00
5218;DHT22;26539;51.064;6.346;2022-12-18T15:48:46;-0.50;1.00
5218;DHT22;26539;51.064;6.346;2022-12-18T15:54:12;-0.50;1.00
5218;DHT22;26539;51.064;6.346;2022-12-18T15:56:39;-0.50;1.00
5218;DHT22;26539;51.064;6.346;2022-12-18T15:59:23;-0.50;1.00
5218;DHT22;26539;51.064;6.346;2022-12-18T16:01:50;-0.50;1.00
5218;DHT22;26539;51.064;6.346;2022-12-18T16:04:18;-0.50;1.00
5218;DHT22;26539;51.064;6.346;2022-12-18T16:06:50;-0.50;1.00
5218;DHT22;26539;51.064;6.346;2022-12-18T16:09:16;-0.50;1.00
5218;DHT22;26539;51.064;6.346;2022-12-18T16:11:43;-0.50;1.00
5218;DHT22;26539;51.064;6.346;2022-12-18T16:14:26;-0.50;1.00
5218;DHT22;26539;51.064;6.346;2022-12-18T16:19:22;-0.40;1.00
5218;DHT22;26539;51.064;6.346;2022-12-18T16:21:49;-0.40;1.00
5218;DHT22;26539;51.064;6.346;2022-12-18T16:24:17;-0.40;1.00
5218;DHT22;26539;51.064;6.346;2022-12-18T16:26:43;-0.50;1.00
5218;DHT22;26539;51.064;6.346;2022-12-18T16:29:09;-0.50;1.00
5218;DHT22;26539;51.064;6.346;2022-12-18T16:31:35;-0.50;1.00
5218;DHT22;26539;51.064;6.346;2022-12-18T16:34:23;-0.50;1.00
5218;DHT22;26539;51.064;6.346;2022-12-18T16:36:54;-0.50;1.00
5218;DHT22;26539;51.064;6.346;2022-12-18T16:39:23;-0.50;1.00
5218;DHT22;26539;51.064;6.346;2022-12-18T16:41:49;-0.50;13.30
5218;DHT22;26539;51.064;6.346;2022-12-18T16:44:14;-0.50;40.10
5218;DHT22;26539;51.064;6.346;2022-12-18T16:46:40;-0.50;61.30
5218;DHT22;26539;51.064;6.346;2022-12-18T16:49:08;-0.50;99.90
5218;DHT22;26539;51.064;6.346;2022-12-18T16:51:35;-0.60;99.90
5218;DHT22;26539;51.064;6.346;2022-12-18T16:54:01;-0.50;99.90
5218;DHT22;26539;51.064;6.346;2022-12-18T16:56:26;-0.50;99.90
5218;DHT22;26539;51.064;6.346;2022-12-18T16:58:53;-0.50;99.90
5218;DHT22;26539;51.064;6.346;2022-12-18T17:01:20;-0.50;99.90
5218;DHT22;26539;51.064;6.346;2022-12-18T17:03:53;-0.50;99.90
5218;DHT22;26539;51.064;6.346;2022-12-18T17:06:20;-0.50;99.90
5218;DHT22;26539;51.064;6.346;2022-12-18T17:08:46;-0.50;99.90
5218;DHT22;26539;51.064;6.346;2022-12-18T17:11:12;-0.40;99.90
5218;DHT22;26539;51.064;6.346;2022-12-18T17:13:38;-0.40;99.90
5218;DHT22;26539;51.064;6.346;2022-12-18T17:16:07;-0.40;99.90
5218;DHT22;26539;51.064;6.346;2022-12-18T17:18:34;-0.40;99.90
5218;DHT22;26539;51.064;6.346;2022-12-18T17:21:04;-0.30;99.90
5218;DHT22;26539;51.064;6.346;2022-12-18T17:23:31;-0.30;99.90
5218;DHT22;26539;51.064;6.346;2022-12-18T17:25:58;-0.30;99.90
5218;DHT22;26539;51.064;6.346;2022-12-18T17:28:25;-0.30;99.90
5218;DHT22;26539;51.064;6.346;2022-12-18T17:30:55;-0.20;99.90
5218;DHT22;26539;51.064;6.346;2022-12-18T17:33:21;-0.20;99.90
5218;DHT22;26539;51.064;6.346;2022-12-18T17:35:46;-0.20;99.90
5218;DHT22;26539;51.064;6.346;2022-12-18T17:38:12;-0.20;99.90
5218;DHT22;26539;51.064;6.346;2022-12-18T17:40:38;-0.10;99.90
5218;DHT22;26539;51.064;6.346;2022-12-18T17:43:08;-0.10;99.90
5218;DHT22;26539;51.064;6.346;2022-12-18T17:45:38;0.00;99.90
5218;DHT22;26539;51.064;6.346;2022-12-18T17:48:05;0.00;99.90
5218;DHT22;26539;51.064;6.346;2022-12-18T17:50:35;0.00;99.90
5218;DHT22;26539;51.064;6.346;2022-12-18T17:53:01;0.00;99.90